createdAt,value
2023-01-22T00:01:09.305Z,1.48
2023-01-22T00:03:37.445Z,1.33
2023-01-22T00:06:05.693Z,1.63
2023-01-22T00:08:33.625Z,1.63
2023-01-22T00:11:01.228Z,2.70
2023-01-22T00:13:28.989Z,2.50
2023-01-22T00:16:00.230Z,2.10
2023-01-22T00:18:27.374Z,1.60
2023-01-22T00:20:55.528Z,2.35
2023-01-22T00:23:23.353Z,2.45
2023-01-22T00:25:50.894Z,2.00
2023-01-22T00:28:18.010Z,1.77
2023-01-22T00:30:45.067Z,2.83
2023-01-22T00:33:12.191Z,1.88
2023-01-22T00:35:39.979Z,1.77
2023-01-22T00:38:06.990Z,2.60
2023-01-22T00:40:34.043Z,2.03
2023-01-22T00:43:01.623Z,1.30
2023-01-22T00:45:28.642Z,2.53
2023-01-22T00:47:55.623Z,1.73
2023-01-22T00:50:22.937Z,1.70
2023-01-22T00:52:50.098Z,2.10
2023-01-22T00:55:17.258Z,2.17
2023-01-22T00:57:44.356Z,1.88
2023-01-22T01:00:14.855Z,1.67
2023-01-22T01:03:00.916Z,2.00
2023-01-22T01:05:28.196Z,2.33
2023-01-22T01:07:55.336Z,1.77
2023-01-22T01:10:22.500Z,1.40
2023-01-22T01:12:49.406Z,1.58
2023-01-22T01:15:16.419Z,2.55
2023-01-22T01:17:43.308Z,1.65
2023-01-22T01:20:10.968Z,1.73
2023-01-22T01:22:38.031Z,1.63
2023-01-22T01:25:05.994Z,1.73
2023-01-22T01:27:33.183Z,2.40
2023-01-22T01:30:00.191Z,2.35
2023-01-22T01:32:27.127Z,2.50
2023-01-22T01:34:54.052Z,1.90
2023-01-22T01:37:21.127Z,2.53
2023-01-22T01:39:52.481Z,2.63
2023-01-22T01:42:34.268Z,2.53
2023-01-22T01:45:19.993Z,2.75
2023-01-22T01:47:50.444Z,2.42
2023-01-22T01:50:20.828Z,3.42
2023-01-22T01:52:47.934Z,2.95
2023-01-22T01:55:19.567Z,3.03
2023-01-22T01:57:46.801Z,2.38
2023-01-22T02:00:14.619Z,3.72
2023-01-22T02:02:41.889Z,3.25
2023-01-22T02:05:09.803Z,3.10
2023-01-22T02:07:37.164Z,2.78
2023-01-22T02:10:06.430Z,2.30
2023-01-22T02:12:34.451Z,3.67
2023-01-22T02:15:03.956Z,3.13
2023-01-22T02:17:30.985Z,2.28
2023-01-22T02:19:57.970Z,2.38
2023-01-22T02:22:31.097Z,3.63
2023-01-22T02:24:58.740Z,3.22
2023-01-22T02:27:26.085Z,3.50
2023-01-22T02:29:53.071Z,3.20
2023-01-22T02:32:20.181Z,2.17
2023-01-22T02:34:47.199Z,2.85
2023-01-22T02:37:14.559Z,2.50
2023-01-22T02:39:41.504Z,2.60
2023-01-22T02:42:09.416Z,2.05
2023-01-22T02:44:36.454Z,2.33
2023-01-22T02:47:03.659Z,2.95
2023-01-22T02:49:30.667Z,2.35
2023-01-22T02:51:57.717Z,1.83
2023-01-22T02:54:24.747Z,1.88
2023-01-22T02:56:51.764Z,3.05
2023-01-22T02:59:19.087Z,2.42
2023-01-22T03:01:46.136Z,2.35
2023-01-22T03:04:13.266Z,2.58
2023-01-22T03:06:42.839Z,2.95
2023-01-22T03:09:11.582Z,2.35
2023-01-22T03:11:40.068Z,3.53
2023-01-22T03:14:26.220Z,2.58
2023-01-22T03:17:12.117Z,2.47
2023-01-22T03:19:57.834Z,3.63
2023-01-22T03:22:24.838Z,2.22
2023-01-22T03:24:53.070Z,3.13
2023-01-22T03:27:21.705Z,2.95
2023-01-22T03:29:49.467Z,3.10
2023-01-22T03:32:17.463Z,2.60
2023-01-22T03:34:44.497Z,2.78
2023-01-22T03:37:13.021Z,2.97
2023-01-22T03:39:40.628Z,3.10
2023-01-22T03:42:08.043Z,2.88
2023-01-22T03:44:35.258Z,3.22
2023-01-22T03:47:02.272Z,3.28
2023-01-22T03:49:29.416Z,3.95
2023-01-22T03:51:57.161Z,3.67
2023-01-22T03:54:24.092Z,3.63
2023-01-22T03:56:51.416Z,2.78
2023-01-22T03:59:18.452Z,3.60
2023-01-22T04:01:45.482Z,3.70
2023-01-22T04:04:12.481Z,2.85
2023-01-22T04:06:39.513Z,4.05
2023-01-22T04:09:06.551Z,3.65
2023-01-22T04:11:33.503Z,3.28
2023-01-22T04:14:00.527Z,4.78
2023-01-22T04:16:27.564Z,4.43
2023-01-22T04:18:54.535Z,5.93
2023-01-22T04:21:21.564Z,6.15
2023-01-22T04:23:48.597Z,5.63
2023-01-22T04:26:15.608Z,5.50
2023-01-22T04:28:42.639Z,5.93
2023-01-22T04:31:22.800Z,6.30
2023-01-22T04:33:49.882Z,5.05
2023-01-22T04:36:18.154Z,4.95
2023-01-22T04:38:45.262Z,5.90
2023-01-22T04:41:12.250Z,6.70
2023-01-22T04:43:39.187Z,4.85
2023-01-22T04:46:06.315Z,5.32
2023-01-22T04:48:33.273Z,5.38
2023-01-22T04:51:00.379Z,4.85
2023-01-22T04:53:27.572Z,7.03
2023-01-22T04:55:54.570Z,5.35
2023-01-22T04:58:21.665Z,5.00
2023-01-22T05:00:48.856Z,4.75
2023-01-22T05:03:15.733Z,6.30
2023-01-22T05:05:42.714Z,5.30
2023-01-22T05:08:09.690Z,6.00
2023-01-22T05:10:36.691Z,4.85
2023-01-22T05:13:05.294Z,5.35
2023-01-22T05:15:32.474Z,4.90
2023-01-22T05:17:59.835Z,4.65
2023-01-22T05:20:27.534Z,6.88
2023-01-22T05:22:54.530Z,6.97
2023-01-22T05:25:21.687Z,6.72
2023-01-22T05:27:48.637Z,6.60
2023-01-22T05:30:16.087Z,6.45
2023-01-22T05:32:43.145Z,4.40
2023-01-22T05:35:10.282Z,5.40
2023-01-22T05:37:37.278Z,5.53
2023-01-22T05:40:05.480Z,5.75
2023-01-22T05:42:32.615Z,5.03
2023-01-22T05:44:59.554Z,5.03
2023-01-22T05:47:26.498Z,4.78
2023-01-22T05:49:53.990Z,5.15
2023-01-22T05:52:21.120Z,6.00
2023-01-22T05:54:48.162Z,4.45
2023-01-22T05:57:15.267Z,7.78
2023-01-22T05:59:42.748Z,5.88
2023-01-22T06:02:09.745Z,6.32
2023-01-22T06:04:36.734Z,3.42
2023-01-22T06:07:03.818Z,5.80
2023-01-22T06:09:30.809Z,5.80
2023-01-22T06:11:57.812Z,3.28
2023-01-22T06:14:24.859Z,3.65
2023-01-22T06:16:51.794Z,5.43
2023-01-22T06:19:18.758Z,5.47
2023-01-22T06:21:45.758Z,4.00
2023-01-22T06:24:12.745Z,5.32
2023-01-22T06:26:47.090Z,6.72
2023-01-22T06:29:14.124Z,4.75
2023-01-22T06:31:41.107Z,3.80
2023-01-22T06:34:09.425Z,6.15
2023-01-22T06:36:36.556Z,6.90
2023-01-22T06:39:03.672Z,5.82
2023-01-22T06:41:30.684Z,5.30
2023-01-22T06:43:57.687Z,5.20
2023-01-22T06:46:24.753Z,5.70
2023-01-22T06:48:51.789Z,5.18
2023-01-22T06:51:18.790Z,5.85
2023-01-22T06:53:46.329Z,4.40
2023-01-22T06:56:13.322Z,4.47
2023-01-22T06:58:40.329Z,5.50
2023-01-22T07:01:07.804Z,6.30
2023-01-22T07:03:34.823Z,6.35
2023-01-22T07:06:04.424Z,4.32
2023-01-22T07:08:33.086Z,5.30
2023-01-22T07:11:00.376Z,5.20
2023-01-22T07:13:27.467Z,5.97
2023-01-22T07:15:54.567Z,7.22
2023-01-22T07:18:24.090Z,6.05
2023-01-22T07:20:51.610Z,5.38
2023-01-22T07:23:18.853Z,5.30
2023-01-22T07:25:46.441Z,5.45
2023-01-22T07:28:15.211Z,7.35
2023-01-22T07:30:43.539Z,7.30
2023-01-22T07:33:11.879Z,5.00
2023-01-22T07:35:39.821Z,6.35
2023-01-22T07:38:07.982Z,7.60
2023-01-22T07:40:35.358Z,6.25
2023-01-22T07:43:06.715Z,6.90
2023-01-22T07:45:34.769Z,6.18
2023-01-22T07:48:02.643Z,8.70
2023-01-22T07:50:31.325Z,5.43
2023-01-22T07:52:58.360Z,6.78
2023-01-22T07:55:25.367Z,5.40
2023-01-22T07:58:04.784Z,7.20
2023-01-22T08:00:34.814Z,6.95
2023-01-22T08:03:04.503Z,6.40
2023-01-22T08:05:31.616Z,6.80
2023-01-22T08:07:59.104Z,5.15
2023-01-22T08:10:26.235Z,4.72
2023-01-22T08:12:53.151Z,5.15
2023-01-22T08:15:20.479Z,7.60
2023-01-22T08:17:50.304Z,7.05
2023-01-22T08:20:17.690Z,5.22
2023-01-22T08:22:45.504Z,6.72
2023-01-22T08:25:12.745Z,6.45
2023-01-22T08:27:39.750Z,7.75
2023-01-22T08:30:08.013Z,6.47
2023-01-22T08:32:35.131Z,5.72
2023-01-22T08:35:02.163Z,5.45
2023-01-22T08:37:29.142Z,7.22
2023-01-22T08:39:56.310Z,6.53
2023-01-22T08:42:23.683Z,5.07
2023-01-22T08:44:50.693Z,4.82
2023-01-22T08:47:17.741Z,5.72
2023-01-22T08:49:44.763Z,8.00
2023-01-22T08:52:11.709Z,4.60
2023-01-22T08:54:38.597Z,5.55
2023-01-22T08:57:05.678Z,5.10
2023-01-22T08:59:32.717Z,5.45
2023-01-22T09:02:00.416Z,5.15
2023-01-22T09:04:28.412Z,5.35
2023-01-22T09:06:55.743Z,5.55
2023-01-22T09:09:23.041Z,6.40
2023-01-22T09:11:50.267Z,5.20
2023-01-22T09:14:17.687Z,6.18
2023-01-22T09:16:45.069Z,4.43
2023-01-22T09:19:12.769Z,5.97
2023-01-22T09:21:39.958Z,4.30
2023-01-22T09:24:14.562Z,5.07
2023-01-22T09:26:42.694Z,4.68
2023-01-22T09:29:09.976Z,4.45
2023-01-22T09:31:37.908Z,4.03
2023-01-22T09:34:05.251Z,5.25
2023-01-22T09:36:32.734Z,4.20
2023-01-22T09:38:59.681Z,4.93
2023-01-22T09:41:37.152Z,4.05
2023-01-22T09:44:17.621Z,4.57
2023-01-22T09:47:16.243Z,4.40
2023-01-22T09:49:52.450Z,4.38
2023-01-22T09:54:47.303Z,4.63
2023-01-22T09:57:30.788Z,4.53
2023-01-22T09:59:58.631Z,4.88
2023-01-22T10:02:31.539Z,4.72
2023-01-22T10:05:17.649Z,4.28
2023-01-22T10:07:51.524Z,5.45
2023-01-22T10:10:24.110Z,4.80
2023-01-22T10:13:23.835Z,3.80
2023-01-22T10:15:53.581Z,5.25
2023-01-22T10:18:52.217Z,3.50
2023-01-22T10:21:29.360Z,3.65
2023-01-22T10:23:58.274Z,5.72
2023-01-22T10:26:38.879Z,3.55
2023-01-22T10:29:14.042Z,5.22
2023-01-22T10:31:47.817Z,4.32
2023-01-22T10:34:17.507Z,5.97
2023-01-22T10:36:53.058Z,5.75
2023-01-22T10:39:23.690Z,4.93
2023-01-22T10:41:58.343Z,5.00
2023-01-22T10:44:27.116Z,4.85
2023-01-22T10:46:55.993Z,5.97
2023-01-22T10:49:27.551Z,5.80
2023-01-22T10:51:56.946Z,6.00
2023-01-22T10:54:34.362Z,6.35
2023-01-22T10:57:33.661Z,5.80
2023-01-22T11:00:16.286Z,3.38
2023-01-22T11:02:49.208Z,5.95
2023-01-22T11:05:23.799Z,3.70
2023-01-22T11:08:06.497Z,4.00
2023-01-22T11:10:56.276Z,6.18
2023-01-22T11:13:47.573Z,5.45
2023-01-22T11:16:18.208Z,4.28
2023-01-22T11:19:36.064Z,5.68
2023-01-22T11:22:13.398Z,5.63
2023-01-22T11:27:35.486Z,5.65
2023-01-22T11:30:24.078Z,5.18
2023-01-22T11:33:10.030Z,5.85
2023-01-22T11:35:47.141Z,4.88
2023-01-22T11:38:13.975Z,4.15
2023-01-22T11:41:18.793Z,5.55
2023-01-22T11:44:03.232Z,6.07
2023-01-22T11:47:04.257Z,6.05
2023-01-22T11:49:40.150Z,6.25
2023-01-22T11:52:12.890Z,5.25
2023-01-22T11:54:52.360Z,4.32
2023-01-22T11:57:41.212Z,5.43
2023-01-22T12:00:23.258Z,4.55
2023-01-22T12:02:50.276Z,5.05
2023-01-22T12:05:36.025Z,6.07
2023-01-22T12:08:17.523Z,4.20
2023-01-22T12:10:56.598Z,4.40
2023-01-22T12:13:33.270Z,6.07
2023-01-22T12:16:23.439Z,5.93
2023-01-22T12:19:24.804Z,5.00
2023-01-22T12:21:57.890Z,5.63
2023-01-22T12:24:37.824Z,8.18
2023-01-22T12:27:14.757Z,4.35
2023-01-22T12:29:54.311Z,6.65
2023-01-22T12:32:23.196Z,5.75
2023-01-22T12:35:00.447Z,5.22
2023-01-22T12:37:38.960Z,5.57
2023-01-22T12:40:25.130Z,4.07
2023-01-22T12:42:58.005Z,3.30
2023-01-22T12:45:51.170Z,6.68
2023-01-22T12:48:30.446Z,5.63
2023-01-22T12:50:58.678Z,6.32
2023-01-22T12:53:31.258Z,5.07
2023-01-22T12:56:10.773Z,3.08
2023-01-22T12:58:41.270Z,5.38
2023-01-22T13:01:14.168Z,3.13
2023-01-22T13:03:42.350Z,3.83
2023-01-22T13:06:33.076Z,3.83
2023-01-22T13:09:00.036Z,5.43
2023-01-22T13:11:36.355Z,4.95
2023-01-22T13:14:20.753Z,5.72
2023-01-22T13:17:00.221Z,4.88
2023-01-22T13:19:30.076Z,4.80
2023-01-22T13:22:01.220Z,3.30
2023-01-22T13:24:28.200Z,3.38
2023-01-22T13:27:01.910Z,4.70
2023-01-22T13:29:37.849Z,2.65
2023-01-22T13:32:20.163Z,5.53
2023-01-22T13:34:47.225Z,3.55
2023-01-22T13:37:25.671Z,3.30
2023-01-22T13:39:53.296Z,4.93
2023-01-22T13:42:21.402Z,4.65
2023-01-22T13:44:52.297Z,3.50
2023-01-22T13:47:33.986Z,3.20
2023-01-22T13:50:02.109Z,4.72
2023-01-22T13:52:29.478Z,2.95
2023-01-22T13:55:20.508Z,7.50
2023-01-22T13:57:49.847Z,3.70
2023-01-22T14:00:33.403Z,5.78
2023-01-22T14:03:00.625Z,3.03
2023-01-22T14:05:33.961Z,3.10
2023-01-22T14:08:09.941Z,2.95
2023-01-22T14:10:37.628Z,4.30
2023-01-22T14:13:07.196Z,2.53
2023-01-22T14:15:34.521Z,2.50
2023-01-22T14:18:11.841Z,2.40
2023-01-22T14:20:40.762Z,4.72
2023-01-22T14:23:08.107Z,3.95
2023-01-22T14:25:39.754Z,2.60
2023-01-22T14:28:06.963Z,3.58
2023-01-22T14:30:34.445Z,4.43
2023-01-22T14:33:01.759Z,2.60
2023-01-22T14:35:28.904Z,2.17
2023-01-22T14:37:56.703Z,3.30
2023-01-22T14:40:25.833Z,5.60
2023-01-22T14:42:53.273Z,4.80
2023-01-22T14:45:20.871Z,3.92
2023-01-22T14:47:52.399Z,5.25
2023-01-22T14:50:21.225Z,5.53
2023-01-22T14:52:49.097Z,3.83
2023-01-22T14:55:16.170Z,3.55
2023-01-22T14:57:43.323Z,3.13
2023-01-22T15:00:13.382Z,2.50
2023-01-22T15:02:41.725Z,3.17
2023-01-22T15:05:10.090Z,2.30
2023-01-22T15:07:37.915Z,3.03
2023-01-22T15:10:07.041Z,2.85
2023-01-22T15:12:34.679Z,2.67
2023-01-22T15:15:01.590Z,2.42
2023-01-22T15:17:28.501Z,2.40
2023-01-22T15:19:56.919Z,2.60
2023-01-22T15:22:23.864Z,2.83
2023-01-22T15:24:50.793Z,1.98
2023-01-22T15:27:18.969Z,2.60
2023-01-22T15:29:46.861Z,2.47
2023-01-22T15:32:14.376Z,1.70
2023-01-22T15:34:41.607Z,1.90
2023-01-22T15:37:09.047Z,3.30
2023-01-22T15:39:35.964Z,2.40
2023-01-22T15:42:02.888Z,4.32
2023-01-22T15:44:30.605Z,3.10
2023-01-22T15:46:59.059Z,2.78
2023-01-22T15:49:26.124Z,2.00
2023-01-22T15:51:53.596Z,1.77
2023-01-22T15:54:20.730Z,2.58
2023-01-22T15:56:48.097Z,1.92
2023-01-22T15:59:15.304Z,1.70
2023-01-22T16:01:42.413Z,1.63
2023-01-22T16:04:10.027Z,1.60
2023-01-22T16:06:37.499Z,2.50
2023-01-22T16:09:06.295Z,3.70
2023-01-22T16:11:33.791Z,3.90
2023-01-22T16:14:01.212Z,2.10
2023-01-22T16:16:36.581Z,3.28
2023-01-22T16:19:05.853Z,1.93
2023-01-22T16:21:33.188Z,1.42
2023-01-22T16:24:05.613Z,1.30
2023-01-22T16:26:35.112Z,2.75
2023-01-22T16:29:04.754Z,1.80
2023-01-22T16:31:34.596Z,2.53
2023-01-22T16:34:09.912Z,4.63
2023-01-22T16:36:37.393Z,5.22
2023-01-22T16:39:05.574Z,3.45
2023-01-22T16:41:37.114Z,1.48
2023-01-22T16:44:18.440Z,4.03
2023-01-22T16:46:48.051Z,3.90
2023-01-22T16:49:28.474Z,1.45
2023-01-22T16:52:21.525Z,1.85
2023-01-22T16:54:50.087Z,1.52
2023-01-22T16:57:20.349Z,1.63
2023-01-22T16:59:47.424Z,1.65
2023-01-22T17:02:16.103Z,1.92
2023-01-22T17:04:43.466Z,1.73
2023-01-22T17:07:27.379Z,1.60
2023-01-22T17:09:58.973Z,1.60
2023-01-22T17:12:26.619Z,3.90
2023-01-22T17:14:53.682Z,2.05
2023-01-22T17:17:20.856Z,4.47
2023-01-22T17:19:48.216Z,3.35
2023-01-22T17:22:15.347Z,3.13
2023-01-22T17:24:42.450Z,2.08
2023-01-22T17:27:11.480Z,2.95
2023-01-22T17:29:38.603Z,2.72
2023-01-22T17:32:06.090Z,2.08
2023-01-22T17:34:33.367Z,2.97
2023-01-22T17:37:00.495Z,13.20
2023-01-22T17:39:27.880Z,5.20
2023-01-22T17:41:54.982Z,5.25
2023-01-22T17:44:22.045Z,3.50
2023-01-22T17:46:49.428Z,2.83
2023-01-22T17:49:16.812Z,2.67
2023-01-22T17:51:43.954Z,3.30
2023-01-22T17:54:11.098Z,2.10
2023-01-22T17:56:45.597Z,2.10
2023-01-22T17:59:12.786Z,2.45
2023-01-22T18:01:40.811Z,2.55
2023-01-22T18:04:09.841Z,2.97
2023-01-22T18:06:38.907Z,2.10
2023-01-22T18:09:07.711Z,2.10
2023-01-22T18:11:36.511Z,2.40
2023-01-22T18:14:10.058Z,2.25
2023-01-22T18:16:41.011Z,5.60
2023-01-22T18:19:08.664Z,3.63
2023-01-22T18:21:37.168Z,2.95
2023-01-22T18:24:06.528Z,2.50
2023-01-22T18:26:34.567Z,2.10
2023-01-22T18:29:01.778Z,2.22
2023-01-22T18:31:30.090Z,2.67
2023-01-22T18:34:01.455Z,2.10
2023-01-22T18:36:34.202Z,1.88
2023-01-22T18:39:07.317Z,2.30
2023-01-22T18:41:34.484Z,1.85
2023-01-22T18:44:02.594Z,1.88
2023-01-22T18:46:33.767Z,1.77
2023-01-22T18:49:04.719Z,1.65
2023-01-22T18:51:33.361Z,2.08
2023-01-22T18:54:04.973Z,1.42
2023-01-22T18:56:32.708Z,1.55
2023-01-22T18:59:00.266Z,1.83
2023-01-22T19:01:33.580Z,1.60
2023-01-22T19:04:03.321Z,1.63
2023-01-22T19:06:37.122Z,2.50
2023-01-22T19:09:12.321Z,2.30
2023-01-22T19:11:42.325Z,2.53
2023-01-22T19:14:12.075Z,3.42
2023-01-22T19:16:39.463Z,3.42
2023-01-22T19:19:11.539Z,5.10
2023-01-22T19:21:40.498Z,2.70
2023-01-22T19:24:09.029Z,2.70
2023-01-22T19:26:37.726Z,4.10
2023-01-22T19:29:11.520Z,4.32
2023-01-22T19:31:46.043Z,3.25
2023-01-22T19:34:16.620Z,3.10
2023-01-22T19:36:43.547Z,2.20
2023-01-22T19:39:13.063Z,4.25
2023-01-22T19:41:41.273Z,3.22
2023-01-22T19:44:09.382Z,3.03
2023-01-22T19:46:38.139Z,2.50
2023-01-22T19:49:06.348Z,3.35
2023-01-22T19:51:34.003Z,4.18
2023-01-22T19:54:02.322Z,2.65
2023-01-22T19:56:33.131Z,2.25
2023-01-22T19:59:03.413Z,2.72
2023-01-22T20:01:30.342Z,2.35
2023-01-22T20:03:57.561Z,5.80
2023-01-22T20:06:25.512Z,3.88
2023-01-22T20:08:56.844Z,2.72
2023-01-22T20:11:24.748Z,4.88
2023-01-22T20:13:52.962Z,3.55
2023-01-22T20:16:22.858Z,3.60
2023-01-22T20:18:50.902Z,5.28
2023-01-22T20:21:19.206Z,3.00
2023-01-22T20:23:47.762Z,2.80
2023-01-22T20:26:17.105Z,2.85
2023-01-22T20:28:44.627Z,2.65
2023-01-22T20:31:14.734Z,3.65
2023-01-22T20:33:42.440Z,4.40
2023-01-22T20:36:15.130Z,3.28
2023-01-22T20:38:46.145Z,5.90
2023-01-22T20:41:14.573Z,6.35
2023-01-22T20:43:43.803Z,10.18
2023-01-22T20:46:23.434Z,5.18
2023-01-22T20:48:50.900Z,4.45
2023-01-22T20:51:23.588Z,7.50
2023-01-22T20:53:53.097Z,9.52
2023-01-22T20:56:23.359Z,10.38
2023-01-22T20:58:57.411Z,5.53
2023-01-22T21:01:25.141Z,5.25
2023-01-22T21:03:53.033Z,6.80
2023-01-22T21:06:20.958Z,7.95
2023-01-22T21:08:51.435Z,7.45
2023-01-22T21:11:20.844Z,7.60
2023-01-22T21:13:50.130Z,7.05
2023-01-22T21:16:23.342Z,6.18
2023-01-22T21:18:50.441Z,7.50
2023-01-22T21:21:19.336Z,5.20
2023-01-22T21:23:51.542Z,4.90
2023-01-22T21:26:23.438Z,7.55
2023-01-22T21:29:02.558Z,5.20
2023-01-22T21:31:30.580Z,4.82
2023-01-22T21:34:04.897Z,6.47
2023-01-22T21:36:41.161Z,8.35
2023-01-22T21:41:38.513Z,5.45
2023-01-22T21:44:24.883Z,6.03
2023-01-22T21:46:52.344Z,7.60
2023-01-22T21:49:23.555Z,8.98
2023-01-22T21:51:50.631Z,9.02
2023-01-22T21:54:20.644Z,6.63
2023-01-22T21:56:51.484Z,6.80
2023-01-22T21:59:19.292Z,5.70
2023-01-22T22:01:46.853Z,7.03
2023-01-22T22:04:15.234Z,6.78
2023-01-22T22:06:42.743Z,5.85
2023-01-22T22:09:14.018Z,6.18
2023-01-22T22:11:41.443Z,5.00
2023-01-22T22:14:10.231Z,5.00
2023-01-22T22:16:37.523Z,4.97
2023-01-22T22:19:04.524Z,7.35
2023-01-22T22:21:31.481Z,5.78
2023-01-22T22:23:58.607Z,6.07
2023-01-22T22:26:26.375Z,8.43
2023-01-22T22:28:54.265Z,8.98
2023-01-22T22:31:21.373Z,7.10
2023-01-22T22:33:51.111Z,9.60
2023-01-22T22:36:20.564Z,5.35
2023-01-22T22:38:47.959Z,9.02
2023-01-22T22:41:26.705Z,6.93
2023-01-22T22:43:55.353Z,7.68
2023-01-22T22:46:27.652Z,7.82
2023-01-22T22:48:56.405Z,6.60
2023-01-22T22:51:35.925Z,5.18
2023-01-22T22:54:12.022Z,5.65
2023-01-22T22:56:39.341Z,7.60
2023-01-22T22:59:07.179Z,7.30
2023-01-22T23:01:36.792Z,9.38
2023-01-22T23:04:05.305Z,6.25
2023-01-22T23:06:34.151Z,5.85
2023-01-22T23:09:01.484Z,8.25
2023-01-22T23:11:34.348Z,5.53
2023-01-22T23:14:02.782Z,10.15
2023-01-22T23:16:35.523Z,10.70
2023-01-22T23:19:06.513Z,11.40
2023-01-22T23:21:40.826Z,11.50
2023-01-22T23:24:12.938Z,11.23
2023-01-22T23:26:41.684Z,10.85
2023-01-22T23:29:10.930Z,7.10
2023-01-22T23:31:39.481Z,6.75
2023-01-22T23:34:09.283Z,6.03
2023-01-22T23:36:36.395Z,5.60
2023-01-22T23:39:04.223Z,5.85
2023-01-22T23:41:31.440Z,8.77
2023-01-22T23:43:58.525Z,6.57
2023-01-22T23:46:28.141Z,5.35
2023-01-22T23:48:56.518Z,4.82
2023-01-22T23:51:23.827Z,10.55
2023-01-22T23:53:52.605Z,6.53
2023-01-22T23:56:24.170Z,8.43
2023-01-22T23:58:54.940Z,6.47
